Time;durP1;ratioP1;P1;durP2;ratioP2;P2;SDS_P1;SDS_P2;PMS_P1;PMS_P2;Temp;Humidity;BMP_temperature;BMP_pressure;BME280_temperature;BME280_humidity;BME280_pressure;Samples;Min_cycle;Max_cycle;Signal;HPM_P1;HPM_P2
2021/08/02 00:01:31;;;;;;;;;;;;;;;21.59;62.93;101230.88;2191177;39;113703;-54
2021/08/02 00:03:13;;;;;;;;;;;;;;;21.57;62.90;101230.38;2190363;39;113594;-53
2021/08/02 00:04:49;;;;;;;;;;;;;;;21.58;62.84;101232.03;2189990;39;113736;-53
2021/08/02 00:06:22;;;;;;;;;;;;;;;21.59;62.77;101230.88;2189996;39;114139;-53
2021/08/02 00:07:56;;;;;;;;;;;;;;;21.58;62.55;101230.06;2191635;39;113936;-53
2021/08/02 00:09:38;;;;;;;;;;;;;;;21.58;62.68;101230.06;2189366;39;113760;-53
2021/08/02 00:11:10;;;;;;;;;;;;;;;21.59;62.85;101236.50;2190330;39;113689;-53
2021/08/02 00:12:44;;;;;;;;;;;;;;;21.59;62.75;101234.53;2190188;39;114026;-53
2021/08/02 00:14:17;;;;;;;;;;;;;;;21.59;62.68;101231.72;2191697;39;113996;-54
2021/08/02 00:15:49;;;;;;;;;;;;;;;21.62;62.82;101233.91;2192188;39;114125;-53
2021/08/02 00:17:21;;;;;;;;;;;;;;;21.60;62.54;101224.97;2195691;39;113629;-53
2021/08/02 00:18:53;;;;;;;;;;;;;;;21.61;62.78;101226.66;2196388;39;113884;-54
2021/08/02 00:20:28;;;;;;;;;;;;;;;21.60;62.70;101230.59;2200752;39;113831;-54
2021/08/02 00:22:02;;;;;;;;;;;;;;;21.60;62.94;101218.50;2186859;39;115317;-53
2021/08/02 00:23:34;;;;;;;;;;;;;;;21.60;63.03;101229.75;2194012;39;114179;-54
2021/08/02 00:25:06;;;;;;;;;;;;;;;21.59;62.90;101222.44;2195804;39;114845;-53
2021/08/02 00:26:39;;;;;;;;;;;;;;;21.59;62.88;101217.66;2198116;39;114219;-53
2021/08/02 00:28:11;;;;;;;;;;;;;;;21.60;62.95;101226.94;2196206;39;115563;-53
2021/08/02 00:29:43;;;;;;;;;;;;;;;21.58;63.26;101227.25;2193560;39;114857;-54
2021/08/02 00:31:15;;;;;;;;;;;;;;;21.61;62.94;101234.25;2198508;39;114845;-53
2021/08/02 00:32:47;;;;;;;;;;;;;;;21.61;62.98;101232.25;2196565;39;115540;-53
2021/08/02 00:34:19;;;;;;;;;;;;;;;21.61;62.82;101237.88;2199013;39;114942;-53
2021/08/02 00:36:00;;;;;;;;;;;;;;;21.61;62.83;101237.06;2198796;39;115397;-54
2021/08/02 00:37:37;;;;;;;;;;;;;;;21.60;63.17;101236.22;2197730;39;114753;-53
2021/08/02 00:39:10;;;;;;;;;;;;;;;21.62;63.15;101242.34;2198635;39;114987;-53
2021/08/02 00:40:45;;;;;;;;;;;;;;;21.62;62.88;101244.34;2198748;39;114776;-53
2021/08/02 00:42:17;;;;;;;;;;;;;;;21.62;62.75;101238.72;2200889;39;114773;-53
2021/08/02 00:44:09;;;;;;;;;;;;;;;21.61;62.72;101240.69;2198477;39;114883;-53
2021/08/02 00:45:43;;;;;;;;;;;;;;;21.64;62.95;101239.25;2189440;39;115423;-53
2021/08/02 00:47:18;;;;;;;;;;;;;;;21.63;62.82;101241.22;2198220;39;115628;-53
2021/08/02 00:48:53;;;;;;;;;;;;;;;21.64;62.87;101242.88;2194354;39;115638;-53
2021/08/02 00:50:26;;;;;;;;;;;;;;;21.65;62.75;101244.56;2187026;39;116269;-54
2021/08/02 00:51:58;;;;;;;;;;;;;;;21.65;62.68;101243.72;2194290;39;114595;-53
2021/08/02 00:53:32;;;;;;;;;;;;;;;21.64;62.65;101254.13;2184087;39;115518;-53
2021/08/02 00:55:05;;;;;;;;;;;;;;;21.65;62.82;101255.81;2194765;39;115908;-53
2021/08/02 00:56:40;;;;;;;;;;;;;;;21.63;62.71;101254.44;2192531;39;115632;-53
2021/08/02 00:58:14;;;;;;;;;;;;;;;21.64;62.87;101256.94;2195435;39;116177;-53
2021/08/02 00:59:47;;;;;;;;;;;;;;;21.66;62.55;101254.69;2196854;39;114512;-53
2021/08/02 01:01:19;;;;;;;;;;;;;;;21.66;62.74;101256.66;2191633;39;115595;-53
2021/08/02 01:02:52;;;;;;;;;;;;;;;21.66;63.04;101256.66;2191771;39;116519;-53
2021/08/02 01:04:24;;;;;;;;;;;;;;;21.66;62.75;101256.66;2198241;39;115074;-53
2021/08/02 01:05:56;;;;;;;;;;;;;;;21.68;62.72;101251.53;2200786;39;113758;-53
2021/08/02 01:07:31;;;;;;;;;;;;;;;21.66;62.82;101260.31;2197765;39;113719;-53
2021/08/02 01:09:04;;;;;;;;;;;;;;;21.66;62.70;101251.88;2202634;39;114231;-53
2021/08/02 01:10:38;;;;;;;;;;;;;;;21.67;62.69;101263.91;2201416;39;113694;-53
2021/08/02 01:12:11;;;;;;;;;;;;;;;21.66;62.86;101253.84;2204791;39;113585;-53
2021/08/02 01:13:43;;;;;;;;;;;;;;;21.66;62.77;101260.31;2204900;39;113572;-53
2021/08/02 01:15:16;;;;;;;;;;;;;;;21.67;62.68;101253.50;2203464;39;113795;-53
2021/08/02 01:16:48;;;;;;;;;;;;;;;21.68;62.79;101251.53;2198281;39;113797;-53
2021/08/02 01:18:21;;;;;;;;;;;;;;;21.66;62.99;101251.88;2197960;39;113824;-53
2021/08/02 01:19:53;;;;;;;;;;;;;;;21.65;63.06;101258.63;2192429;39;113687;-53
2021/08/02 01:21:25;;;;;;;;;;;;;;;21.66;62.79;101257.50;2185082;39;113902;-53
2021/08/02 01:22:59;;;;;;;;;;;;;;;21.65;63.06;101257.78;2193424;39;113823;-54
2021/08/02 01:24:33;;;;;;;;;;;;;;;21.66;63.05;101254.69;2197637;39;113640;-53
2021/08/02 01:26:19;;;;;;;;;;;;;;;21.67;62.88;101256.31;2201187;39;113770;-53
2021/08/02 01:28:11;;;;;;;;;;;;;;;21.66;62.82;101254.69;2197223;39;113910;-53
2021/08/02 01:29:52;;;;;;;;;;;;;;;21.69;62.80;101258.84;2189652;39;114810;-53
2021/08/02 01:31:42;;;;;;;;;;;;;;;21.72;62.64;101252.59;2197015;39;113856;-53
2021/08/02 01:33:15;;;;;;;;;;;;;;;21.69;61.92;101248.44;2197640;39;113891;-53
2021/08/02 01:34:47;;;;;;;;;;;;;;;21.66;62.21;101246.25;2187206;39;114919;-53
2021/08/02 01:36:19;;;;;;;;;;;;;;;21.64;62.08;101244.84;2192566;39;115480;-53
2021/08/02 01:37:51;;;;;;;;;;;;;;;21.63;61.96;101246.84;2202159;39;114767;-53
2021/08/02 01:39:22;;;;;;;;;;;;;;;21.62;62.23;101250.78;2203238;39;114838;-53
2021/08/02 01:40:55;;;;;;;;;;;;;;;21.62;61.73;101245.16;2199956;39;115122;-54
2021/08/02 01:42:27;;;;;;;;;;;;;;;21.61;61.78;101253.94;2190318;39;114174;-53
2021/08/02 01:43:59;;;;;;;;;;;;;;;21.59;61.69;101244.94;2194746;39;114770;-53
2021/08/02 01:45:41;;;;;;;;;;;;;;;21.59;61.72;101239.31;2197624;39;114753;-53
2021/08/02 01:47:19;;;;;;;;;;;;;;;21.57;61.66;101233.19;2190660;39;114844;-53
2021/08/02 01:48:54;;;;;;;;;;;;;;;21.56;61.53;101235.16;2197916;39;115563;-53
2021/08/02 01:50:29;;;;;;;;;;;;;;;21.55;61.85;101236.31;2197489;39;115483;-54
2021/08/02 01:52:02;;;;;;;;;;;;;;;21.55;61.70;101232.66;2190831;39;115563;-53
2021/08/02 01:53:42;;;;;;;;;;;;;;;21.54;61.45;101237.44;2187609;39;115465;-53
2021/08/02 01:55:17;;;;;;;;;;;;;;;21.54;61.61;101234.63;2195642;39;115521;-53
2021/08/02 01:56:52;;;;;;;;;;;;;;;21.54;61.35;101229.00;2190072;39;116016;-53
2021/08/02 01:58:27;;;;;;;;;;;;;;;21.53;61.54;101235.75;2195534;39;114556;-53
2021/08/02 02:00:01;;;;;;;;;;;;;;;21.52;61.44;101228.50;2197313;39;115551;-54
2021/08/02 02:01:36;;;;;;;;;;;;;;;21.51;61.45;101229.63;2197521;39;114723;-53
2021/08/02 02:03:14;;;;;;;;;;;;;;;21.51;61.48;101229.63;2197191;39;116042;-54
2021/08/02 02:04:52;;;;;;;;;;;;;;;21.52;61.30;101236.09;2190636;39;114532;-54
2021/08/02 02:06:29;;;;;;;;;;;;;;;21.51;61.11;101234.41;2188187;39;115652;-54
2021/08/02 02:08:10;;;;;;;;;;;;;;;21.51;61.35;101235.25;2190314;39;115480;-53
2021/08/02 02:09:42;;;;;;;;;;;;;;;21.49;61.36;101226.28;2197434;39;116294;-53
2021/08/02 02:11:14;;;;;;;;;;;;;;;21.49;61.28;101228.25;2195605;39;115422;-53
2021/08/02 02:12:47;;;;;;;;;;;;;;;21.48;61.09;101235.88;2198657;39;117403;-52
2021/08/02 02:14:20;;;;;;;;;;;;;;;21.48;61.44;101237.84;2198352;39;113774;-54
2021/08/02 02:15:53;;;;;;;;;;;;;;;21.49;61.37;101237.53;2187311;39;113826;-54
2021/08/02 02:17:25;;;;;;;;;;;;;;;21.48;61.20;101238.69;2192206;39;114015;-53
2021/08/02 02:19:00;;;;;;;;;;;;;;;21.47;61.41;101234.19;2198344;39;114167;-53
2021/08/02 02:20:33;;;;;;;;;;;;;;;21.48;61.13;101230.25;2199953;39;113953;-53
2021/08/02 02:22:05;;;;;;;;;;;;;;;21.49;60.99;101231.06;2191054;39;113799;-53
2021/08/02 02:23:37;;;;;;;;;;;;;;;21.49;61.24;101233.88;2190361;39;114781;-54
2021/08/02 02:25:10;;;;;;;;;;;;;;;21.49;61.04;101234.72;2188381;39;113804;-53
2021/08/02 02:26:43;;;;;;;;;;;;;;;21.47;61.01;101225.78;2194909;39;113970;-53
2021/08/02 02:28:15;;;;;;;;;;;;;;;21.48;61.34;101226.59;2197187;39;113826;-53
2021/08/02 02:29:48;;;;;;;;;;;;;;;21.46;61.20;101228.88;2193999;39;113911;-53
2021/08/02 02:31:20;;;;;;;;;;;;;;;21.47;61.18;101237.00;2196457;39;115039;-53
2021/08/02 02:32:52;;;;;;;;;;;;;;;21.46;61.07;101226.91;2197031;39;113769;-53
2021/08/02 02:34:25;;;;;;;;;;;;;;;21.46;61.30;101234.50;2201525;39;113597;-52
2021/08/02 02:35:58;;;;;;;;;;;;;;;21.46;61.69;101235.34;2195409;39;114937;-54
2021/08/02 02:37:30;;;;;;;;;;;;;;;21.46;61.76;101232.53;2197304;39;113816;-53
2021/08/02 02:39:03;;;;;;;;;;;;;;;21.46;61.91;101229.72;2194205;39;114801;-54
2021/08/02 02:40:37;;;;;;;;;;;;;;;21.47;61.83;101228.59;2192430;39;114874;-53
2021/08/02 02:42:09;;;;;;;;;;;;;;;21.47;61.73;101237.00;2196884;39;115158;-53
2021/08/02 02:43:41;;;;;;;;;;;;;;;21.48;61.95;101235.03;2197796;39;114888;-53
2021/08/02 02:45:13;;;;;;;;;;;;;;;21.47;62.06;101230.56;2193530;39;114781;-53
2021/08/02 02:46:46;;;;;;;;;;;;;;;21.49;62.09;101239.50;2195926;39;115332;-53
2021/08/02 02:48:18;;;;;;;;;;;;;;;21.48;61.86;101240.66;2197051;39;114801;-53
2021/08/02 02:49:50;;;;;;;;;;;;;;;21.48;62.08;101235.88;2195370;39;115292;-53
2021/08/02 02:51:25;;;;;;;;;;;;;;;21.50;62.24;101243.97;2193437;39;114960;-54
2021/08/02 02:52:58;;;;;;;;;;;;;;;21.49;62.02;101231.91;2198135;39;114874;-53
2021/08/02 02:54:30;;;;;;;;;;;;;;;21.49;62.20;101231.06;2197169;39;115535;-53
2021/08/02 02:56:08;;;;;;;;;;;;;;;21.49;62.33;101233.88;2203685;39;114908;-54
2021/08/02 02:57:40;;;;;;;;;;;;;;;21.49;62.21;101237.53;2191423;39;115891;-54
2021/08/02 02:59:12;;;;;;;;;;;;;;;21.49;61.97;101243.16;2185216;39;115807;-54
2021/08/02 03:00:45;;;;;;;;;;;;;;;21.48;62.45;101240.66;2196192;39;115445;-53
2021/08/02 03:02:20;;;;;;;;;;;;;;;21.49;62.22;101243.16;2198765;39;115690;-53
2021/08/02 03:03:53;;;;;;;;;;;;;;;21.50;62.38;101243.97;2198705;39;115736;-52
2021/08/02 03:05:26;;;;;;;;;;;;;;;21.50;62.21;101238.38;2198965;39;115514;-53
2021/08/02 03:06:59;;;;;;;;;;;;;;;21.50;62.14;101230.75;2198616;39;115451;-53
2021/08/02 03:08:32;;;;;;;;;;;;;;;21.51;62.33;101232.44;2199754;39;115827;-54
2021/08/02 03:10:05;;;;;;;;;;;;;;;21.51;62.36;101235.25;2198548;39;115241;-53
2021/08/02 03:11:37;;;;;;;;;;;;;;;21.51;62.28;101238.06;2191186;39;115524;-53
2021/08/02 03:13:09;;;;;;;;;;;;;;;21.51;62.29;101242.84;2196859;39;115685;-53
2021/08/02 03:14:41;;;;;;;;;;;;;;;21.51;62.61;101240.88;2197612;39;115567;-53
2021/08/02 03:16:13;;;;;;;;;;;;;;;21.51;62.32;101232.44;2191560;39;115669;-53
2021/08/02 03:17:46;;;;;;;;;;;;;;;21.50;62.35;101239.19;2199158;39;115457;-53
2021/08/02 03:19:17;;;;;;;;;;;;;;;21.51;62.23;101242.84;2191802;39;113688;-53
2021/08/02 03:20:49;;;;;;;;;;;;;;;21.51;62.21;101234.41;2191683;39;114132;-53
2021/08/02 03:22:31;;;;;;;;;;;;;;;21.52;62.48;101236.09;2191357;39;114091;-53
2021/08/02 03:24:13;;;;;;;;;;;;;;;21.50;62.46;101235.56;2192820;39;113756;-53
2021/08/02 03:25:47;;;;;;;;;;;;;;;21.51;62.43;101240.88;2192440;39;113704;-53
2021/08/02 03:27:29;;;;;;;;;;;;;;;21.51;62.61;101245.66;2190195;39;114002;-53
2021/08/02 03:29:06;;;;;;;;;;;;;;;21.52;62.45;101250.16;2191445;39;113685;-53
2021/08/02 03:30:41;;;;;;;;;;;;;;;21.52;62.41;101247.34;2191285;39;113572;-53
2021/08/02 03:32:14;;;;;;;;;;;;;;;21.51;62.42;101254.94;2187395;39;113842;-53
2021/08/02 03:33:47;;;;;;;;;;;;;;;21.51;62.22;101257.75;2194729;39;113796;-53
2021/08/02 03:35:19;;;;;;;;;;;;;;;21.52;62.58;101256.63;2189029;39;113804;-53
2021/08/02 03:36:51;;;;;;;;;;;;;;;21.52;62.43;101252.97;2192896;39;113766;-53
2021/08/02 03:38:25;;;;;;;;;;;;;;;21.52;62.47;101251.00;2189008;39;114381;-53
2021/08/02 03:39:57;;;;;;;;;;;;;;;21.53;62.26;101255.44;2187761;39;114213;-53
2021/08/02 03:41:29;;;;;;;;;;;;;;;21.54;62.45;101259.09;2195167;39;113669;-54
2021/08/02 03:43:01;;;;;;;;;;;;;;;21.53;62.42;101261.06;2192580;39;114807;-53
2021/08/02 03:44:33;;;;;;;;;;;;;;;21.52;62.39;101256.63;2190356;39;115036;-53
2021/08/02 03:46:05;;;;;;;;;;;;;;;21.52;62.87;101258.59;2190576;39;114764;-53
2021/08/02 03:47:37;;;;;;;;;;;;;;;21.52;62.35;101262.22;2192612;39;114830;-53
2021/08/02 03:49:09;;;;;;;;;;;;;;;21.52;62.56;101269.84;2195991;39;114914;-53
2021/08/02 03:50:41;;;;;;;;;;;;;;;21.53;62.41;101269.50;2191076;39;113996;-53
2021/08/02 03:52:13;;;;;;;;;;;;;;;21.53;62.65;101268.69;2191977;39;114758;-54
2021/08/02 03:53:46;;;;;;;;;;;;;;;21.52;62.50;101265.03;2195290;39;114790;-53
2021/08/02 03:55:19;;;;;;;;;;;;;;;21.53;62.51;101263.06;2188770;39;114780;-53
2021/08/02 03:56:51;;;;;;;;;;;;;;;21.53;62.69;101263.06;2191835;39;115299;-53
2021/08/02 03:58:23;;;;;;;;;;;;;;;21.53;62.55;101266.69;2192153;39;115126;-53
2021/08/02 03:59:55;;;;;;;;;;;;;;;21.53;62.40;101272.31;2192249;39;113914;-53
2021/08/02 04:01:27;;;;;;;;;;;;;;;21.52;62.49;101273.47;2190934;39;115101;-52
2021/08/02 04:02:59;;;;;;;;;;;;;;;21.53;62.51;101272.31;2195401;39;114070;-53
2021/08/02 04:04:31;;;;;;;;;;;;;;;21.56;62.39;101273.69;2192255;39;117311;-53
2021/08/02 04:06:04;;;;;;;;;;;;;;;21.54;62.38;101271.19;2191934;39;115457;-53
2021/08/02 04:07:37;;;;;;;;;;;;;;;21.55;62.54;101277.63;2191428;39;114582;-53
2021/08/02 04:09:10;;;;;;;;;;;;;;;21.53;62.44;101280.75;2191882;39;115974;-53
2021/08/02 04:10:42;;;;;;;;;;;;;;;21.54;62.45;101279.63;2189377;39;114596;-54
2021/08/02 04:12:13;;;;;;;;;;;;;;;21.54;62.54;101273.16;2192130;39;115294;-53
2021/08/02 04:13:45;;;;;;;;;;;;;;;21.54;62.47;101279.63;2193725;39;115563;-53
2021/08/02 04:15:17;;;;;;;;;;;;;;;21.54;62.59;101282.44;2192148;39;114006;-53
2021/08/02 04:16:49;;;;;;;;;;;;;;;21.54;62.56;101278.78;2191878;39;115534;-52
2021/08/02 04:18:20;;;;;;;;;;;;;;;21.53;62.87;101271.50;2194236;39;114851;-53
2021/08/02 04:19:52;;;;;;;;;;;;;;;21.54;62.63;101276.81;2198566;39;115414;-53
2021/08/02 04:21:24;;;;;;;;;;;;;;;21.54;62.69;101267.53;2197385;39;115558;-53
2021/08/02 04:22:56;;;;;;;;;;;;;;;21.53;62.52;101274.31;2199275;39;116766;-53
2021/08/02 04:24:27;;;;;;;;;;;;;;;21.54;62.72;101275.97;2196183;39;115753;-53
2021/08/02 04:25:59;;;;;;;;;;;;;;;21.53;62.32;101280.75;2193606;39;113854;-53
2021/08/02 04:27:31;;;;;;;;;;;;;;;21.54;62.48;101288.06;2198997;39;113943;-53
2021/08/02 04:29:03;;;;;;;;;;;;;;;21.56;62.56;101285.78;2198544;39;113728;-53
2021/08/02 04:30:35;;;;;;;;;;;;;;;21.55;62.48;101292.53;2185428;39;114045;-52
2021/08/02 04:32:06;;;;;;;;;;;;;;;21.54;62.53;101288.06;2188670;39;113762;-53
2021/08/02 04:33:39;;;;;;;;;;;;;;;21.53;62.64;101294.81;2196761;39;113826;-54
2021/08/02 04:35:11;;;;;;;;;;;;;;;21.52;62.59;101290.34;2191816;39;114471;-53
2021/08/02 04:36:43;;;;;;;;;;;;;;;21.56;62.46;101288.59;2188569;39;113818;-53
2021/08/02 04:38:15;;;;;;;;;;;;;;;21.55;62.54;101286.06;2197250;39;114018;-53
2021/08/02 04:39:47;;;;;;;;;;;;;;;21.58;62.43;101288.25;2192851;39;113767;-53
2021/08/02 04:41:19;;;;;;;;;;;;;;;21.58;62.42;101288.25;2198192;39;113759;-53
2021/08/02 04:42:51;;;;;;;;;;;;;;;21.57;62.47;101289.44;2198609;39;113657;-53
2021/08/02 04:44:23;;;;;;;;;;;;;;;21.57;62.35;101292.25;2198604;39;114507;-53
2021/08/02 04:45:55;;;;;;;;;;;;;;;21.56;62.66;101285.78;2194338;39;113831;-53
2021/08/02 04:47:27;;;;;;;;;;;;;;;21.58;62.60;101289.09;2198537;39;114017;-53
2021/08/02 04:48:58;;;;;;;;;;;;;;;21.58;62.57;101293.88;2196232;39;114867;-56
2021/08/02 04:50:30;;;;;;;;;;;;;;;21.56;62.78;101296.19;2198449;39;114681;-53
2021/08/02 04:52:02;;;;;;;;;;;;;;;21.61;62.36;101294.13;2197295;39;114766;-53
2021/08/02 04:53:34;;;;;;;;;;;;;;;21.62;62.23;101300.59;2198007;39;114703;-53
2021/08/02 04:55:06;;;;;;;;;;;;;;;21.59;62.52;101290.78;2190220;39;114782;-53
2021/08/02 04:56:38;;;;;;;;;;;;;;;21.58;62.66;101297.53;2197066;39;114739;-53
2021/08/02 04:58:10;;;;;;;;;;;;;;;21.58;62.61;101300.34;2192207;39;115201;-54
2021/08/02 04:59:42;;;;;;;;;;;;;;;21.56;62.86;101291.41;2196856;39;114813;-53
2021/08/02 05:01:14;;;;;;;;;;;;;;;21.59;62.76;101296.41;2195518;39;115270;-53
2021/08/02 05:02:46;;;;;;;;;;;;;;;21.56;62.68;101296.19;2196219;39;114796;-53
2021/08/02 05:04:18;;;;;;;;;;;;;;;21.56;62.54;101296.19;2197922;39;114170;-54
2021/08/02 05:05:52;;;;;;;;;;;;;;;21.55;62.71;101295.34;2198282;39;114110;-54
2021/08/02 05:07:24;;;;;;;;;;;;;;;21.55;62.76;101295.34;2194286;39;113842;-53
2021/08/02 05:08:56;;;;;;;;;;;;;;;21.55;62.70;101295.34;2195709;39;115828;-53
2021/08/02 05:10:27;;;;;;;;;;;;;;;21.58;62.70;101293.88;2197038;39;115430;-53
2021/08/02 05:11:59;;;;;;;;;;;;;;;21.55;62.65;101295.34;2195630;39;115308;-53
2021/08/02 05:13:31;;;;;;;;;;;;;;;21.55;62.71;101286.91;2196798;39;116112;-53
2021/08/02 05:15:04;;;;;;;;;;;;;;;21.56;62.51;101285.78;2198451;39;115504;-53
2021/08/02 05:16:36;;;;;;;;;;;;;;;21.56;62.59;101301.81;2189605;39;115585;-54
2021/08/02 05:18:07;;;;;;;;;;;;;;;21.55;62.70;101289.72;2195477;39;114753;-53
2021/08/02 05:19:39;;;;;;;;;;;;;;;21.56;62.62;101293.38;2191017;39;115724;-53
2021/08/02 05:21:11;;;;;;;;;;;;;;;21.53;62.77;101297.63;2195612;39;115583;-54
2021/08/02 05:22:43;;;;;;;;;;;;;;;21.55;62.67;101298.16;2195975;39;115795;-53
2021/08/02 05:24:16;;;;;;;;;;;;;;;21.54;62.92;101293.69;2200192;39;115876;-54
2021/08/02 05:25:48;;;;;;;;;;;;;;;21.56;62.78;101290.56;2192045;39;114512;-53
2021/08/02 05:27:20;;;;;;;;;;;;;;;21.55;62.62;101286.91;2189094;39;115597;-54
2021/08/02 05:28:51;;;;;;;;;;;;;;;21.54;62.71;101290.84;2193265;39;115724;-54
2021/08/02 05:30:23;;;;;;;;;;;;;;;21.54;62.96;101290.84;2194042;39;115309;-53
2021/08/02 05:31:55;;;;;;;;;;;;;;;21.54;62.96;101282.44;2192257;39;114090;-53
2021/08/02 05:33:27;;;;;;;;;;;;;;;21.56;62.75;101287.75;2197524;39;114083;-53
2021/08/02 05:34:58;;;;;;;;;;;;;;;21.55;62.99;101295.34;2194028;39;113732;-53
2021/08/02 05:36:30;;;;;;;;;;;;;;;21.56;62.72;101294.22;2196402;39;114034;-53
2021/08/02 05:38:02;;;;;;;;;;;;;;;21.55;62.65;101291.69;2196691;39;113640;-53
2021/08/02 05:39:35;;;;;;;;;;;;;;;21.55;62.85;101298.16;2198594;39;113855;-54
2021/08/02 05:41:07;;;;;;;;;;;;;;;21.54;62.99;101299.28;2198332;39;113866;-53
2021/08/02 05:42:39;;;;;;;;;;;;;;;21.56;62.88;101299.00;2197946;39;113949;-53
2021/08/02 05:44:11;;;;;;;;;;;;;;;21.54;62.99;101293.69;2186823;39;113635;-53
2021/08/02 05:45:43;;;;;;;;;;;;;;;21.53;62.98;101297.63;2195921;39;113888;-53
2021/08/02 05:47:15;;;;;;;;;;;;;;;21.53;62.66;101296.81;2199007;39;114092;-53
2021/08/02 05:48:47;;;;;;;;;;;;;;;21.53;63.00;101296.81;2198403;39;113681;-53
2021/08/02 05:50:19;;;;;;;;;;;;;;;21.52;62.87;101295.97;2191673;39;114033;-53
2021/08/02 05:51:52;;;;;;;;;;;;;;;21.52;62.79;101295.97;2198590;39;113775;-53
2021/08/02 05:53:23;;;;;;;;;;;;;;;21.53;62.94;101306.06;2198603;39;115209;-54
2021/08/02 05:54:55;;;;;;;;;;;;;;;21.54;62.89;101295.66;2190938;39;114797;-53
2021/08/02 05:56:27;;;;;;;;;;;;;;;21.52;62.80;101290.34;2196073;39;115284;-53
2021/08/02 05:57:59;;;;;;;;;;;;;;;21.53;62.71;101292.00;2190966;39;114318;-53
2021/08/02 05:59:30;;;;;;;;;;;;;;;21.53;62.85;101291.19;2196384;39;115334;-54
2021/08/02 06:01:03;;;;;;;;;;;;;;;21.53;63.08;101297.63;2199120;39;115074;-53
2021/08/02 06:02:36;;;;;;;;;;;;;;;21.54;63.13;101301.28;2197612;39;114829;-53
2021/08/02 06:04:09;;;;;;;;;;;;;;;21.53;62.73;101296.81;2191551;39;115081;-53
2021/08/02 06:05:40;;;;;;;;;;;;;;;21.53;63.10;101303.25;2189349;39;113979;-55
2021/08/02 06:07:12;;;;;;;;;;;;;;;21.54;62.83;101299.28;2195240;39;114847;-54
2021/08/02 06:08:44;;;;;;;;;;;;;;;21.52;62.97;101295.97;2199144;39;114769;-53
2021/08/02 06:10:16;;;;;;;;;;;;;;;21.53;62.73;101296.81;2200232;39;114852;-54
2021/08/02 06:11:48;;;;;;;;;;;;;;;21.53;62.95;101294.00;2188682;39;114909;-54
2021/08/02 06:13:20;;;;;;;;;;;;;;;21.53;62.67;101292.00;2198955;39;113867;-53
2021/08/02 06:14:51;;;;;;;;;;;;;;;21.55;62.90;101288.88;2200889;39;115573;-53
2021/08/02 06:16:23;;;;;;;;;;;;;;;21.54;62.85;101288.06;2191364;39;115572;-53
2021/08/02 06:18:08;;;;;;;;;;;;;;;21.54;62.80;101293.69;2196168;39;115881;-54
2021/08/02 06:19:43;;;;;;;;;;;;;;;21.53;62.81;101286.38;2197921;39;115987;-53
2021/08/02 06:21:15;;;;;;;;;;;;;;;21.54;62.76;101298.47;2190464;39;115601;-53
2021/08/02 06:22:47;;;;;;;;;;;;;;;21.53;62.95;101297.63;2192654;39;115509;-54
2021/08/02 06:24:19;;;;;;;;;;;;;;;21.53;62.90;101302.44;2186692;39;115471;-53
2021/08/02 06:25:51;;;;;;;;;;;;;;;21.55;62.86;101300.97;2188535;39;114517;-53
2021/08/02 06:27:22;;;;;;;;;;;;;;;21.55;62.79;101295.34;2190178;39;115548;-53
2021/08/02 06:28:54;;;;;;;;;;;;;;;21.56;62.62;101296.19;2193972;39;115550;-53
2021/08/02 06:30:26;;;;;;;;;;;;;;;21.56;62.75;101296.19;2193675;39;115810;-53
2021/08/02 06:31:58;;;;;;;;;;;;;;;21.54;62.79;101296.47;2190864;39;115955;-53
2021/08/02 06:33:30;;;;;;;;;;;;;;;21.56;62.91;101296.19;2196939;39;115214;-53
2021/08/02 06:35:02;;;;;;;;;;;;;;;21.56;62.77;101299.00;2201308;39;115984;-53
2021/08/02 06:36:33;;;;;;;;;;;;;;;21.56;62.72;101296.19;2184599;39;114200;-54
2021/08/02 06:38:05;;;;;;;;;;;;;;;21.56;62.56;101302.66;2193070;39;113844;-53
2021/08/02 06:39:37;;;;;;;;;;;;;;;21.57;62.86;101300.69;2196290;39;113753;-53
2021/08/02 06:41:09;;;;;;;;;;;;;;;21.56;62.84;101302.66;2198740;39;113741;-54
2021/08/02 06:42:41;;;;;;;;;;;;;;;21.60;62.67;101298.09;2199385;39;113754;-53
2021/08/02 06:44:14;;;;;;;;;;;;;;;21.59;62.67;101304.00;2195331;39;113749;-53
2021/08/02 06:45:45;;;;;;;;;;;;;;;21.59;62.34;101302.03;2195895;39;113574;-54
2021/08/02 06:47:18;;;;;;;;;;;;;;;21.60;62.33;101305.69;2192067;39;113808;-53
2021/08/02 06:48:50;;;;;;;;;;;;;;;21.62;62.55;101315.47;2194901;39;113795;-53
2021/08/02 06:50:23;;;;;;;;;;;;;;;21.62;62.57;101304.22;2191997;39;114032;-56
2021/08/02 06:51:54;;;;;;;;;;;;;;;21.60;62.35;101309.31;2186597;39;113771;-52
2021/08/02 06:53:27;;;;;;;;;;;;;;;21.60;62.34;101309.31;2195363;39;114194;-53
2021/08/02 06:54:58;;;;;;;;;;;;;;;21.60;62.35;101316.91;2198536;39;113778;-53
2021/08/02 06:56:31;;;;;;;;;;;;;;;21.59;62.43;101316.09;2193141;39;114223;-53
2021/08/02 06:58:02;;;;;;;;;;;;;;;21.61;62.47;101312.97;2196884;39;113753;-53
2021/08/02 06:59:34;;;;;;;;;;;;;;;21.61;62.42;101315.78;2197865;39;115446;-52
2021/08/02 07:01:07;;;;;;;;;;;;;;;21.61;62.35;101316.63;2199048;39;114791;-53
2021/08/02 07:02:39;;;;;;;;;;;;;;;21.65;61.90;101317.69;2191301;39;114767;-53
2021/08/02 07:04:11;;;;;;;;;;;;;;;21.62;61.97;101318.28;2192129;39;114857;-53
2021/08/02 07:05:43;;;;;;;;;;;;;;;21.62;62.13;101315.47;2192684;39;115598;-53
2021/08/02 07:07:15;;;;;;;;;;;;;;;21.61;62.09;101321.41;2193382;39;114912;-53
2021/08/02 07:08:47;;;;;;;;;;;;;;;21.63;61.84;101319.13;2191368;39;113941;-53
2021/08/02 07:10:19;;;;;;;;;;;;;;;21.62;62.26;101317.47;2197763;39;115073;-53
2021/08/02 07:11:51;;;;;;;;;;;;;;;21.61;62.15;101324.22;2193513;39;113853;-53
2021/08/02 07:13:22;;;;;;;;;;;;;;;21.61;61.97;101319.44;2199372;39;114027;-52
2021/08/02 07:14:55;;;;;;;;;;;;;;;21.61;62.20;101321.41;2191127;39;114764;-53
2021/08/02 07:16:26;;;;;;;;;;;;;;;21.62;62.04;101325.91;2195841;39;113920;-53
2021/08/02 07:17:58;;;;;;;;;;;;;;;21.63;61.93;101322.75;2197469;39;114834;-53
2021/08/02 07:19:30;;;;;;;;;;;;;;;21.65;62.15;101328.94;2193864;39;114785;-53
2021/08/02 07:21:02;;;;;;;;;;;;;;;21.62;62.12;101329.53;2189486;39;115235;-53
2021/08/02 07:22:34;;;;;;;;;;;;;;;21.60;61.95;101322.53;2187352;39;115476;-53
2021/08/02 07:24:07;;;;;;;;;;;;;;;21.60;62.28;101325.38;2197222;39;115640;-54
2021/08/02 07:25:39;;;;;;;;;;;;;;;21.58;61.97;101328.47;2198554;39;115415;-53
2021/08/02 07:27:10;;;;;;;;;;;;;;;21.58;62.15;101336.06;2199544;39;115761;-53
2021/08/02 07:28:43;;;;;;;;;;;;;;;21.59;61.92;101330.16;2192060;39;114583;-53
2021/08/02 07:30:15;;;;;;;;;;;;;;;21.61;62.12;101327.88;2197507;39;115669;-53
2021/08/02 07:31:48;;;;;;;;;;;;;;;21.60;61.66;101325.38;2199987;39;115567;-53
2021/08/02 07:33:22;;;;;;;;;;;;;;;21.60;62.09;101331.81;2198369;39;114666;-53
2021/08/02 07:34:54;;;;;;;;;;;;;;;21.59;62.04;101329.31;2189741;39;115446;-53
2021/08/02 07:36:26;;;;;;;;;;;;;;;21.59;61.69;101330.16;2194256;39;116097;-53
2021/08/02 07:37:58;;;;;;;;;;;;;;;21.60;61.83;101333.78;2197891;39;115679;-53
2021/08/02 07:39:30;;;;;;;;;;;;;;;21.60;61.82;101330.97;2195616;39;115916;-53
2021/08/02 07:41:02;;;;;;;;;;;;;;;21.58;61.97;101334.09;2189690;39;115979;-53
2021/08/02 07:42:34;;;;;;;;;;;;;;;21.58;61.74;101334.09;2193331;39;113720;-53
2021/08/02 07:44:06;;;;;;;;;;;;;;;21.58;61.61;101334.09;2196300;39;113981;-53
2021/08/02 07:45:38;;;;;;;;;;;;;;;21.58;61.51;101331.28;2196210;39;114017;-53
2021/08/02 07:47:10;;;;;;;;;;;;;;;21.56;61.83;101330.78;2195839;39;113681;-53
2021/08/02 07:48:42;;;;;;;;;;;;;;;21.57;61.81;101325.97;2194081;39;114562;-53
2021/08/02 07:50:15;;;;;;;;;;;;;;;21.56;61.64;101332.75;2198051;39;113864;-54
2021/08/02 07:51:47;;;;;;;;;;;;;;;21.55;61.67;101331.06;2191837;39;114371;-54
2021/08/02 07:53:19;;;;;;;;;;;;;;;21.55;61.85;101328.25;2196418;39;113790;-53